sensor_id;sensor_type;location;lat;lon;timestamp;temperature;humidity
18189;DHT22;9219;50.396;8.546;2023-04-24T00:03:22;12.00;99.90
18189;DHT22;9219;50.396;8.546;2023-04-24T00:05:50;12.00;99.90
18189;DHT22;9219;50.396;8.546;2023-04-24T00:08:17;12.10;99.90
18189;DHT22;9219;50.396;8.546;2023-04-24T00:10:45;12.10;99.90
18189;DHT22;9219;50.396;8.546;2023-04-24T00:13:12;12.00;99.90
18189;DHT22;9219;50.396;8.546;2023-04-24T00:15:39;12.00;99.90
18189;DHT22;9219;50.396;8.546;2023-04-24T00:18:06;11.90;99.90
18189;DHT22;9219;50.396;8.546;2023-04-24T00:20:35;12.00;99.90
18189;DHT22;9219;50.396;8.546;2023-04-24T00:28:07;11.90;99.90
18189;DHT22;9219;50.396;8.546;2023-04-24T00:30:35;12.00;99.90
18189;DHT22;9219;50.396;8.546;2023-04-24T00:33:02;11.80;99.90
18189;DHT22;9219;50.396;8.546;2023-04-24T00:35:30;11.90;99.90
18189;DHT22;9219;50.396;8.546;2023-04-24T00:37:57;11.90;99.90
18189;DHT22;9219;50.396;8.546;2023-04-24T00:40:24;12.10;99.90
18189;DHT22;9219;50.396;8.546;2023-04-24T00:42:51;12.30;99.90
18189;DHT22;9219;50.396;8.546;2023-04-24T00:48:00;12.20;99.90
18189;DHT22;9219;50.396;8.546;2023-04-24T00:50:28;12.10;99.90
18189;DHT22;9219;50.396;8.546;2023-04-24T00:52:56;12.10;99.90
18189;DHT22;9219;50.396;8.546;2023-04-24T00:55:24;12.10;99.90
18189;DHT22;9219;50.396;8.546;2023-04-24T00:57:52;11.90;99.90
18189;DHT22;9219;50.396;8.546;2023-04-24T01:00:20;11.90;99.90
18189;DHT22;9219;50.396;8.546;2023-04-24T01:02:47;11.90;99.90
18189;DHT22;9219;50.396;8.546;2023-04-24T01:05:16;11.90;99.90
18189;DHT22;9219;50.396;8.546;2023-04-24T01:12:46;12.00;99.90
18189;DHT22;9219;50.396;8.546;2023-04-24T01:15:13;11.70;99.90
18189;DHT22;9219;50.396;8.546;2023-04-24T01:17:40;11.70;99.90
18189;DHT22;9219;50.396;8.546;2023-04-24T01:20:08;11.80;99.90
18189;DHT22;9219;50.396;8.546;2023-04-24T01:22:37;12.00;99.90
18189;DHT22;9219;50.396;8.546;2023-04-24T01:25:05;12.00;99.90
18189;DHT22;9219;50.396;8.546;2023-04-24T01:27:32;12.10;99.90
18189;DHT22;9219;50.396;8.546;2023-04-24T01:30:00;12.20;99.90
18189;DHT22;9219;50.396;8.546;2023-04-24T01:37:32;12.00;99.90
18189;DHT22;9219;50.396;8.546;2023-04-24T01:39:59;12.10;99.90
18189;DHT22;9219;50.396;8.546;2023-04-24T01:42:27;12.20;99.90
18189;DHT22;9219;50.396;8.546;2023-04-24T01:44:54;11.80;99.90
18189;DHT22;9219;50.396;8.546;2023-04-24T01:47:22;11.90;99.90
18189;DHT22;9219;50.396;8.546;2023-04-24T01:49:50;11.90;99.90
18189;DHT22;9219;50.396;8.546;2023-04-24T01:52:17;11.70;99.90
18189;DHT22;9219;50.396;8.546;2023-04-24T01:54:47;11.60;99.90
18189;DHT22;9219;50.396;8.546;2023-04-24T02:02:17;11.60;99.90
18189;DHT22;9219;50.396;8.546;2023-04-24T02:04:45;11.60;99.90
18189;DHT22;9219;50.396;8.546;2023-04-24T02:07:12;11.50;99.90
18189;DHT22;9219;50.396;8.546;2023-04-24T02:09:39;11.60;99.90
18189;DHT22;9219;50.396;8.546;2023-04-24T02:12:08;11.70;99.90
18189;DHT22;9219;50.396;8.546;2023-04-24T02:14:38;11.60;99.90
18189;DHT22;9219;50.396;8.546;2023-04-24T02:17:05;11.50;99.90
18189;DHT22;9219;50.396;8.546;2023-04-24T02:27:12;11.20;99.90
18189;DHT22;9219;50.396;8.546;2023-04-24T02:29:40;11.00;99.90
18189;DHT22;9219;50.396;8.546;2023-04-24T02:32:07;11.10;99.90
18189;DHT22;9219;50.396;8.546;2023-04-24T02:34:37;11.20;99.90
18189;DHT22;9219;50.396;8.546;2023-04-24T02:37:04;11.20;99.90
18189;DHT22;9219;50.396;8.546;2023-04-24T02:39:31;11.10;99.90
18189;DHT22;9219;50.396;8.546;2023-04-24T02:41:59;11.10;99.90
18189;DHT22;9219;50.396;8.546;2023-04-24T02:44:27;11.10;99.90
18189;DHT22;9219;50.396;8.546;2023-04-24T02:49:33;11.20;99.90
18189;DHT22;9219;50.396;8.546;2023-04-24T02:52:01;10.90;99.90
18189;DHT22;9219;50.396;8.546;2023-04-24T02:54:28;10.80;99.90
18189;DHT22;9219;50.396;8.546;2023-04-24T02:56:55;11.00;99.90
18189;DHT22;9219;50.396;8.546;2023-04-24T02:59:23;10.90;99.90
18189;DHT22;9219;50.396;8.546;2023-04-24T03:01:50;10.90;99.90
18189;DHT22;9219;50.396;8.546;2023-04-24T03:04:17;10.80;99.90
18189;DHT22;9219;50.396;8.546;2023-04-24T03:09:31;10.80;99.90
18189;DHT22;9219;50.396;8.546;2023-04-24T03:11:59;10.80;99.90
18189;DHT22;9219;50.396;8.546;2023-04-24T03:14:26;10.90;99.90
18189;DHT22;9219;50.396;8.546;2023-04-24T03:16:56;10.80;99.90
18189;DHT22;9219;50.396;8.546;2023-04-24T03:19:23;10.40;99.90
18189;DHT22;9219;50.396;8.546;2023-04-24T03:21:50;10.10;99.90
18189;DHT22;9219;50.396;8.546;2023-04-24T03:24:17;10.20;99.90
18189;DHT22;9219;50.396;8.546;2023-04-24T03:26:45;10.20;99.90
18189;DHT22;9219;50.396;8.546;2023-04-24T03:34:18;10.00;99.90
18189;DHT22;9219;50.396;8.546;2023-04-24T03:36:45;9.80;99.90
18189;DHT22;9219;50.396;8.546;2023-04-24T03:39:14;9.90;99.90
18189;DHT22;9219;50.396;8.546;2023-04-24T03:41:41;10.00;99.90
18189;DHT22;9219;50.396;8.546;2023-04-24T03:44:08;10.00;99.90
18189;DHT22;9219;50.396;8.546;2023-04-24T03:46:35;9.90;99.90
18189;DHT22;9219;50.396;8.546;2023-04-24T03:49:03;9.60;99.90
18189;DHT22;9219;50.396;8.546;2023-04-24T03:51:31;9.70;99.90
18189;DHT22;9219;50.396;8.546;2023-04-24T03:59:04;9.60;99.90
18189;DHT22;9219;50.396;8.546;2023-04-24T04:01:32;9.80;99.90
18189;DHT22;9219;50.396;8.546;2023-04-24T04:04:02;10.00;99.90
18189;DHT22;9219;50.396;8.546;2023-04-24T04:06:30;9.80;99.90
18189;DHT22;9219;50.396;8.546;2023-04-24T04:08:57;9.90;99.90
18189;DHT22;9219;50.396;8.546;2023-04-24T04:11:25;9.70;99.90
18189;DHT22;9219;50.396;8.546;2023-04-24T04:13:53;9.60;99.90
18189;DHT22;9219;50.396;8.546;2023-04-24T04:23:48;9.30;99.90
18189;DHT22;9219;50.396;8.546;2023-04-24T04:26:15;9.00;99.90
18189;DHT22;9219;50.396;8.546;2023-04-24T04:28:43;8.80;99.90
18189;DHT22;9219;50.396;8.546;2023-04-24T04:31:10;8.70;99.90
18189;DHT22;9219;50.396;8.546;2023-04-24T04:33:37;8.60;99.90
18189;DHT22;9219;50.396;8.546;2023-04-24T04:36:05;8.60;99.90
18189;DHT22;9219;50.396;8.546;2023-04-24T04:38:33;8.40;99.90
18189;DHT22;9219;50.396;8.546;2023-04-24T04:41:02;8.40;99.90
18189;DHT22;9219;50.396;8.546;2023-04-24T04:48:47;8.60;99.90
18189;DHT22;9219;50.396;8.546;2023-04-24T04:51:15;8.40;99.90
18189;DHT22;9219;50.396;8.546;2023-04-24T04:53:42;8.20;99.90
18189;DHT22;9219;50.396;8.546;2023-04-24T04:56:09;8.40;99.90
18189;DHT22;9219;50.396;8.546;2023-04-24T04:58:37;8.40;99.90
18189;DHT22;9219;50.396;8.546;2023-04-24T05:01:04;8.40;99.90
18189;DHT22;9219;50.396;8.546;2023-04-24T05:03:31;8.30;99.90
18189;DHT22;9219;50.396;8.546;2023-04-24T05:06:01;8.40;99.90
18189;DHT22;9219;50.396;8.546;2023-04-24T05:13:28;8.20;99.90
18189;DHT22;9219;50.396;8.546;2023-04-24T05:16:05;8.60;99.90
18189;DHT22;9219;50.396;8.546;2023-04-24T05:18:32;8.70;99.90
18189;DHT22;9219;50.396;8.546;2023-04-24T05:21:00;8.90;99.90
18189;DHT22;9219;50.396;8.546;2023-04-24T05:23:27;9.00;99.90
18189;DHT22;9219;50.396;8.546;2023-04-24T05:25:55;9.30;99.90
18189;DHT22;9219;50.396;8.546;2023-04-24T05:28:22;9.20;99.90
18189;DHT22;9219;50.396;8.546;2023-04-24T05:33:55;9.10;99.90
18189;DHT22;9219;50.396;8.546;2023-04-24T05:36:23;8.80;99.90
18189;DHT22;9219;50.396;8.546;2023-04-24T05:38:50;9.00;99.90
18189;DHT22;9219;50.396;8.546;2023-04-24T05:41:18;9.00;99.90
18189;DHT22;9219;50.396;8.546;2023-04-24T05:43:45;8.80;99.90
18189;DHT22;9219;50.396;8.546;2023-04-24T05:46:12;8.60;99.90
18189;DHT22;9219;50.396;8.546;2023-04-24T05:48:39;8.80;99.90
18189;DHT22;9219;50.396;8.546;2023-04-24T05:53:48;8.90;99.90
18189;DHT22;9219;50.396;8.546;2023-04-24T05:56:16;8.90;99.90
18189;DHT22;9219;50.396;8.546;2023-04-24T05:58:43;8.90;99.90
18189;DHT22;9219;50.396;8.546;2023-04-24T06:01:11;8.80;99.90
18189;DHT22;9219;50.396;8.546;2023-04-24T06:03:40;8.30;99.90
18189;DHT22;9219;50.396;8.546;2023-04-24T06:06:08;8.40;99.90
18189;DHT22;9219;50.396;8.546;2023-04-24T06:08:35;8.60;99.90
18189;DHT22;9219;50.396;8.546;2023-04-24T06:11:04;8.50;99.90
18189;DHT22;9219;50.396;8.546;2023-04-24T06:19:00;8.40;99.90
18189;DHT22;9219;50.396;8.546;2023-04-24T06:21:32;8.50;99.90
18189;DHT22;9219;50.396;8.546;2023-04-24T06:23:59;8.40;99.90
18189;DHT22;9219;50.396;8.546;2023-04-24T06:26:26;8.60;99.90
18189;DHT22;9219;50.396;8.546;2023-04-24T06:28:54;8.80;99.90
18189;DHT22;9219;50.396;8.546;2023-04-24T06:31:21;9.00;99.90
18189;DHT22;9219;50.396;8.546;2023-04-24T06:33:49;9.00;99.90
18189;DHT22;9219;50.396;8.546;2023-04-24T06:38:55;8.80;99.90
18189;DHT22;9219;50.396;8.546;2023-04-24T06:41:23;8.80;99.90
18189;DHT22;9219;50.396;8.546;2023-04-24T06:43:50;8.70;99.90
18189;DHT22;9219;50.396;8.546;2023-04-24T06:46:18;8.50;99.90
18189;DHT22;9219;50.396;8.546;2023-04-24T06:48:48;8.70;99.90
18189;DHT22;9219;50.396;8.546;2023-04-24T06:51:15;8.90;99.90
18189;DHT22;9219;50.396;8.546;2023-04-24T06:53:44;9.00;99.90
18189;DHT22;9219;50.396;8.546;2023-04-24T07:01:17;8.60;99.90
18189;DHT22;9219;50.396;8.546;2023-04-24T07:03:44;9.10;99.90
18189;DHT22;9219;50.396;8.546;2023-04-24T07:06:11;9.10;99.90
18189;DHT22;9219;50.396;8.546;2023-04-24T07:08:38;9.30;99.90
18189;DHT22;9219;50.396;8.546;2023-04-24T07:11:08;9.60;99.90
18189;DHT22;9219;50.396;8.546;2023-04-24T07:13:35;9.40;99.90
18189;DHT22;9219;50.396;8.546;2023-04-24T07:16:07;9.20;99.90
18189;DHT22;9219;50.396;8.546;2023-04-24T07:26:16;9.60;99.90
18189;DHT22;9219;50.396;8.546;2023-04-24T07:28:44;9.40;99.90
18189;DHT22;9219;50.396;8.546;2023-04-24T07:31:11;9.50;99.90
18189;DHT22;9219;50.396;8.546;2023-04-24T07:33:38;9.50;99.90
18189;DHT22;9219;50.396;8.546;2023-04-24T07:36:06;9.70;99.90
18189;DHT22;9219;50.396;8.546;2023-04-24T07:38:33;9.70;99.90
18189;DHT22;9219;50.396;8.546;2023-04-24T07:41:00;10.00;99.90
18189;DHT22;9219;50.396;8.546;2023-04-24T07:46:14;10.40;99.90
18189;DHT22;9219;50.396;8.546;2023-04-24T07:48:42;10.50;99.90
18189;DHT22;9219;50.396;8.546;2023-04-24T07:51:08;10.60;99.90
18189;DHT22;9219;50.396;8.546;2023-04-24T07:53:37;10.60;99.90
18189;DHT22;9219;50.396;8.546;2023-04-24T07:56:04;10.50;99.90
18189;DHT22;9219;50.396;8.546;2023-04-24T07:58:31;10.60;99.90
18189;DHT22;9219;50.396;8.546;2023-04-24T08:00:58;10.60;99.90
18189;DHT22;9219;50.396;8.546;2023-04-24T08:06:06;10.50;99.90
18189;DHT22;9219;50.396;8.546;2023-04-24T08:08:34;10.90;99.90
18189;DHT22;9219;50.396;8.546;2023-04-24T08:11:01;10.90;99.90
18189;DHT22;9219;50.396;8.546;2023-04-24T08:13:28;10.90;99.90
18189;DHT22;9219;50.396;8.546;2023-04-24T08:15:56;11.00;99.90
18189;DHT22;9219;50.396;8.546;2023-04-24T08:18:24;10.90;99.90
18189;DHT22;9219;50.396;8.546;2023-04-24T08:20:51;10.80;99.90
18189;DHT22;9219;50.396;8.546;2023-04-24T08:25:59;10.90;99.90
18189;DHT22;9219;50.396;8.546;2023-04-24T08:28:27;11.10;99.90
18189;DHT22;9219;50.396;8.546;2023-04-24T08:30:54;11.20;99.90
18189;DHT22;9219;50.396;8.546;2023-04-24T08:33:21;11.20;99.90
18189;DHT22;9219;50.396;8.546;2023-04-24T08:35:48;11.40;99.90
18189;DHT22;9219;50.396;8.546;2023-04-24T08:38:16;11.40;99.90
18189;DHT22;9219;50.396;8.546;2023-04-24T08:40:43;10.80;99.90
18189;DHT22;9219;50.396;8.546;2023-04-24T08:43:14;10.90;99.90
18189;DHT22;9219;50.396;8.546;2023-04-24T08:50:42;10.60;99.90
18189;DHT22;9219;50.396;8.546;2023-04-24T08:53:11;10.70;99.90
18189;DHT22;9219;50.396;8.546;2023-04-24T08:55:38;10.80;99.90
18189;DHT22;9219;50.396;8.546;2023-04-24T08:58:05;11.10;99.90
18189;DHT22;9219;50.396;8.546;2023-04-24T09:00:34;10.90;99.90
18189;DHT22;9219;50.396;8.546;2023-04-24T09:03:02;10.70;99.90
18189;DHT22;9219;50.396;8.546;2023-04-24T09:05:30;10.70;99.90
18189;DHT22;9219;50.396;8.546;2023-04-24T09:11:02;10.80;99.90
18189;DHT22;9219;50.396;8.546;2023-04-24T09:13:30;11.10;99.90
18189;DHT22;9219;50.396;8.546;2023-04-24T09:15:58;11.00;99.90
18189;DHT22;9219;50.396;8.546;2023-04-24T09:18:26;10.40;99.90
18189;DHT22;9219;50.396;8.546;2023-04-24T09:21:01;10.30;99.90
18189;DHT22;9219;50.396;8.546;2023-04-24T09:23:30;10.60;99.90
18189;DHT22;9219;50.396;8.546;2023-04-24T09:25:59;10.70;99.90
18189;DHT22;9219;50.396;8.546;2023-04-24T09:28:30;11.10;99.90
18189;DHT22;9219;50.396;8.546;2023-04-24T09:36:09;11.40;99.90
18189;DHT22;9219;50.396;8.546;2023-04-24T09:38:37;11.30;99.90
18189;DHT22;9219;50.396;8.546;2023-04-24T09:41:06;10.90;99.90
18189;DHT22;9219;50.396;8.546;2023-04-24T09:43:35;10.80;99.90
18189;DHT22;9219;50.396;8.546;2023-04-24T09:46:06;11.00;99.90
18189;DHT22;9219;50.396;8.546;2023-04-24T09:48:35;11.00;99.90
18189;DHT22;9219;50.396;8.546;2023-04-24T09:51:05;11.10;99.90
18189;DHT22;9219;50.396;8.546;2023-04-24T09:56:18;10.60;99.90
18189;DHT22;9219;50.396;8.546;2023-04-24T09:58:46;10.80;99.90
18189;DHT22;9219;50.396;8.546;2023-04-24T10:01:14;11.10;99.90
18189;DHT22;9219;50.396;8.546;2023-04-24T10:03:43;11.40;99.90
18189;DHT22;9219;50.396;8.546;2023-04-24T10:06:12;10.90;99.90
18189;DHT22;9219;50.396;8.546;2023-04-24T10:08:40;10.40;99.90
18189;DHT22;9219;50.396;8.546;2023-04-24T10:11:07;10.50;99.90
18189;DHT22;9219;50.396;8.546;2023-04-24T10:21:48;10.50;99.90
18189;DHT22;9219;50.396;8.546;2023-04-24T10:24:17;10.20;99.90
18189;DHT22;9219;50.396;8.546;2023-04-24T10:26:48;10.30;99.90
18189;DHT22;9219;50.396;8.546;2023-04-24T10:29:18;10.50;99.90
18189;DHT22;9219;50.396;8.546;2023-04-24T10:31:46;10.70;99.90
18189;DHT22;9219;50.396;8.546;2023-04-24T10:34:15;10.50;99.90
18189;DHT22;9219;50.396;8.546;2023-04-24T10:36:47;10.20;99.90
18189;DHT22;9219;50.396;8.546;2023-04-24T10:42:55;9.80;99.90
18189;DHT22;9219;50.396;8.546;2023-04-24T10:45:25;9.70;99.90
18189;DHT22;9219;50.396;8.546;2023-04-24T10:47:56;10.10;99.90
18189;DHT22;9219;50.396;8.546;2023-04-24T10:50:30;9.70;99.90
18189;DHT22;9219;50.396;8.546;2023-04-24T10:53:15;9.50;99.90
18189;DHT22;9219;50.396;8.546;2023-04-24T10:55:45;8.40;99.90
18189;DHT22;9219;50.396;8.546;2023-04-24T10:58:13;7.90;99.90
18189;DHT22;9219;50.396;8.546;2023-04-24T11:05:53;7.60;99.90
18189;DHT22;9219;50.396;8.546;2023-04-24T11:08:25;7.70;99.90
18189;DHT22;9219;50.396;8.546;2023-04-24T11:11:02;8.00;99.90
18189;DHT22;9219;50.396;8.546;2023-04-24T11:16:40;8.90;99.90
18189;DHT22;9219;50.396;8.546;2023-04-24T11:19:17;9.10;99.90
18189;DHT22;9219;50.396;8.546;2023-04-24T11:21:47;9.00;99.90
18189;DHT22;9219;50.396;8.546;2023-04-24T11:30:00;8.80;99.90
18189;DHT22;9219;50.396;8.546;2023-04-24T11:32:30;9.30;99.90
18189;DHT22;9219;50.396;8.546;2023-04-24T11:34:59;9.40;99.90
18189;DHT22;9219;50.396;8.546;2023-04-24T11:37:28;9.10;99.90
18189;DHT22;9219;50.396;8.546;2023-04-24T11:39:57;9.00;99.90
18189;DHT22;9219;50.396;8.546;2023-04-24T11:42:25;8.70;99.90
18189;DHT22;9219;50.396;8.546;2023-04-24T11:44:54;8.60;99.90
18189;DHT22;9219;50.396;8.546;2023-04-24T11:47:29;8.60;99.90
18189;DHT22;9219;50.396;8.546;2023-04-24T11:55:01;9.00;99.90
18189;DHT22;9219;50.396;8.546;2023-04-24T11:57:29;8.70;99.90
18189;DHT22;9219;50.396;8.546;2023-04-24T12:00:00;8.80;99.90
18189;DHT22;9219;50.396;8.546;2023-04-24T12:02:27;8.80;99.90
18189;DHT22;9219;50.396;8.546;2023-04-24T12:04:55;9.00;99.90
18189;DHT22;9219;50.396;8.546;2023-04-24T12:07:23;9.60;99.90
18189;DHT22;9219;50.396;8.546;2023-04-24T12:09:56;9.80;99.90
18189;DHT22;9219;50.396;8.546;2023-04-24T12:17:30;10.10;99.90
18189;DHT22;9219;50.396;8.546;2023-04-24T12:19:58;10.20;99.90
18189;DHT22;9219;50.396;8.546;2023-04-24T12:22:27;9.60;99.90
18189;DHT22;9219;50.396;8.546;2023-04-24T12:25:06;8.90;99.90
18189;DHT22;9219;50.396;8.546;2023-04-24T12:27:39;8.60;99.90
18189;DHT22;9219;50.396;8.546;2023-04-24T12:30:11;8.20;99.90
18189;DHT22;9219;50.396;8.546;2023-04-24T12:32:45;7.60;99.90
18189;DHT22;9219;50.396;8.546;2023-04-24T12:38:05;7.40;99.90
18189;DHT22;9219;50.396;8.546;2023-04-24T12:40:33;7.20;99.90
18189;DHT22;9219;50.396;8.546;2023-04-24T12:43:13;7.40;99.90
18189;DHT22;9219;50.396;8.546;2023-04-24T12:45:40;7.30;99.90
18189;DHT22;9219;50.396;8.546;2023-04-24T12:48:08;7.30;99.90
18189;DHT22;9219;50.396;8.546;2023-04-24T12:50:36;7.40;99.90
18189;DHT22;9219;50.396;8.546;2023-04-24T12:53:04;7.40;99.90
18189;DHT22;9219;50.396;8.546;2023-04-24T13:01:23;7.60;99.90
18189;DHT22;9219;50.396;8.546;2023-04-24T13:03:50;7.70;99.90
18189;DHT22;9219;50.396;8.546;2023-04-24T13:06:18;8.00;99.90
18189;DHT22;9219;50.396;8.546;2023-04-24T13:08:45;7.90;99.90
18189;DHT22;9219;50.396;8.546;2023-04-24T13:11:13;7.80;99.90
18189;DHT22;9219;50.396;8.546;2023-04-24T13:13:41;8.00;99.90
18189;DHT22;9219;50.396;8.546;2023-04-24T13:16:09;8.20;99.90
18189;DHT22;9219;50.396;8.546;2023-04-24T13:23:06;8.40;99.90
18189;DHT22;9219;50.396;8.546;2023-04-24T13:25:35;8.60;99.90
18189;DHT22;9219;50.396;8.546;2023-04-24T13:28:05;8.80;99.90
18189;DHT22;9219;50.396;8.546;2023-04-24T13:30:34;8.90;99.90
18189;DHT22;9219;50.396;8.546;2023-04-24T13:33:01;8.70;99.90
18189;DHT22;9219;50.396;8.546;2023-04-24T13:35:29;8.50;99.90
18189;DHT22;9219;50.396;8.546;2023-04-24T13:37:58;8.60;99.90
18189;DHT22;9219;50.396;8.546;2023-04-24T13:43:07;8.60;99.90
18189;DHT22;9219;50.396;8.546;2023-04-24T13:45:34;8.60;99.90
18189;DHT22;9219;50.396;8.546;2023-04-24T13:48:02;8.50;99.90
18189;DHT22;9219;50.396;8.546;2023-04-24T13:50:29;8.50;99.90
18189;DHT22;9219;50.396;8.546;2023-04-24T13:52:57;8.50;99.90
18189;DHT22;9219;50.396;8.546;2023-04-24T13:55:28;8.70;99.90
18189;DHT22;9219;50.396;8.546;2023-04-24T13:57:55;8.80;99.90
18189;DHT22;9219;50.396;8.546;2023-04-24T14:00:24;8.90;99.90
18189;DHT22;9219;50.396;8.546;2023-04-24T14:07:57;8.90;99.90
18189;DHT22;9219;50.396;8.546;2023-04-24T14:10:24;9.70;99.90
18189;DHT22;9219;50.396;8.546;2023-04-24T14:12:52;9.90;99.90
18189;DHT22;9219;50.396;8.546;2023-04-24T14:15:20;9.90;99.90
18189;DHT22;9219;50.396;8.546;2023-04-24T14:17:47;10.40;99.90
18189;DHT22;9219;50.396;8.546;2023-04-24T14:20:15;10.20;99.90
18189;DHT22;9219;50.396;8.546;2023-04-24T14:22:42;9.90;99.90
18189;DHT22;9219;50.396;8.546;2023-04-24T14:27:49;10.00;99.90
18189;DHT22;9219;50.396;8.546;2023-04-24T14:30:17;9.80;99.90
18189;DHT22;9219;50.396;8.546;2023-04-24T14:32:44;9.80;99.90
18189;DHT22;9219;50.396;8.546;2023-04-24T14:35:11;10.00;99.90
18189;DHT22;9219;50.396;8.546;2023-04-24T14:37:40;10.10;99.90
18189;DHT22;9219;50.396;8.546;2023-04-24T14:40:08;9.70;99.90
18189;DHT22;9219;50.396;8.546;2023-04-24T14:42:56;9.60;99.90
18189;DHT22;9219;50.396;8.546;2023-04-24T14:45:24;9.60;99.90
18189;DHT22;9219;50.396;8.546;2023-04-24T14:48:18;9.60;99.90
18189;DHT22;9219;50.396;8.546;2023-04-24T14:50:46;9.60;99.90
18189;DHT22;9219;50.396;8.546;2023-04-24T14:53:14;9.30;99.90
18189;DHT22;9219;50.396;8.546;2023-04-24T14:55:42;9.40;99.90
18189;DHT22;9219;50.396;8.546;2023-04-24T14:58:10;9.40;99.90
18189;DHT22;9219;50.396;8.546;2023-04-24T15:00:40;9.50;99.90
18189;DHT22;9219;50.396;8.546;2023-04-24T15:03:08;9.80;99.90
18189;DHT22;9219;50.396;8.546;2023-04-24T15:05:39;10.20;99.90
18189;DHT22;9219;50.396;8.546;2023-04-24T15:08:29;10.10;99.90
18189;DHT22;9219;50.396;8.546;2023-04-24T15:10:56;10.20;99.90
18189;DHT22;9219;50.396;8.546;2023-04-24T15:13:24;10.00;99.90
18189;DHT22;9219;50.396;8.546;2023-04-24T15:15:52;10.00;99.90
18189;DHT22;9219;50.396;8.546;2023-04-24T15:18:20;9.90;99.90
18189;DHT22;9219;50.396;8.546;2023-04-24T15:20:47;10.20;99.90
18189;DHT22;9219;50.396;8.546;2023-04-24T15:23:14;10.20;99.90
18189;DHT22;9219;50.396;8.546;2023-04-24T15:25:47;10.20;99.90
18189;DHT22;9219;50.396;8.546;2023-04-24T15:33:23;10.20;99.90
18189;DHT22;9219;50.396;8.546;2023-04-24T15:35:53;10.10;99.90
18189;DHT22;9219;50.396;8.546;2023-04-24T15:38:21;10.10;99.90
18189;DHT22;9219;50.396;8.546;2023-04-24T15:40:48;10.20;99.90
18189;DHT22;9219;50.396;8.546;2023-04-24T15:43:16;9.90;99.90
18189;DHT22;9219;50.396;8.546;2023-04-24T15:45:44;9.80;99.90
18189;DHT22;9219;50.396;8.546;2023-04-24T15:48:11;9.70;99.90
18189;DHT22;9219;50.396;8.546;2023-04-24T15:53:20;9.60;99.90
18189;DHT22;9219;50.396;8.546;2023-04-24T15:55:48;9.70;99.90
18189;DHT22;9219;50.396;8.546;2023-04-24T15:58:17;9.50;99.90
18189;DHT22;9219;50.396;8.546;2023-04-24T16:00:45;9.40;99.90
18189;DHT22;9219;50.396;8.546;2023-04-24T16:03:13;9.50;99.90
18189;DHT22;9219;50.396;8.546;2023-04-24T16:05:40;9.30;99.90
18189;DHT22;9219;50.396;8.546;2023-04-24T16:08:07;9.30;99.90
18189;DHT22;9219;50.396;8.546;2023-04-24T16:10:37;9.30;99.90
18189;DHT22;9219;50.396;8.546;2023-04-24T16:13:19;9.70;99.90
18189;DHT22;9219;50.396;8.546;2023-04-24T16:15:46;9.80;99.90
18189;DHT22;9219;50.396;8.546;2023-04-24T16:18:14;9.90;99.90
18189;DHT22;9219;50.396;8.546;2023-04-24T16:20:43;9.90;99.90
18189;DHT22;9219;50.396;8.546;2023-04-24T16:23:10;10.10;99.90
18189;DHT22;9219;50.396;8.546;2023-04-24T16:25:38;9.60;99.90
18189;DHT22;9219;50.396;8.546;2023-04-24T16:28:05;9.40;99.90
18189;DHT22;9219;50.396;8.546;2023-04-24T16:30:33;9.50;99.90
18189;DHT22;9219;50.396;8.546;2023-04-24T16:38:06;9.50;99.90
18189;DHT22;9219;50.396;8.546;2023-04-24T16:40:33;9.80;99.90
18189;DHT22;9219;50.396;8.546;2023-04-24T16:43:00;9.70;99.90
18189;DHT22;9219;50.396;8.546;2023-04-24T16:45:27;9.60;99.90
18189;DHT22;9219;50.396;8.546;2023-04-24T16:47:54;9.70;99.90
18189;DHT22;9219;50.396;8.546;2023-04-24T16:50:25;10.00;99.90
18189;DHT22;9219;50.396;8.546;2023-04-24T16:52:52;10.10;99.90
18189;DHT22;9219;50.396;8.546;2023-04-24T16:55:21;9.60;99.90
18189;DHT22;9219;50.396;8.546;2023-04-24T17:02:54;9.80;99.90
18189;DHT22;9219;50.396;8.546;2023-04-24T17:05:22;10.80;99.90
18189;DHT22;9219;50.396;8.546;2023-04-24T17:07:51;11.00;99.90
18189;DHT22;9219;50.396;8.546;2023-04-24T17:10:18;10.70;99.90
18189;DHT22;9219;50.396;8.546;2023-04-24T17:12:46;10.60;99.90
18189;DHT22;9219;50.396;8.546;2023-04-24T17:15:14;10.50;99.90
18189;DHT22;9219;50.396;8.546;2023-04-24T17:17:41;10.40;99.90
18189;DHT22;9219;50.396;8.546;2023-04-24T17:22:49;10.40;99.90
18189;DHT22;9219;50.396;8.546;2023-04-24T17:25:19;10.90;99.90
18189;DHT22;9219;50.396;8.546;2023-04-24T17:27:46;11.10;99.90
18189;DHT22;9219;50.396;8.546;2023-04-24T17:30:14;11.10;99.90
18189;DHT22;9219;50.396;8.546;2023-04-24T17:32:43;11.00;99.90
18189;DHT22;9219;50.396;8.546;2023-04-24T17:35:11;10.90;99.90
18189;DHT22;9219;50.396;8.546;2023-04-24T17:37:38;11.00;99.90
18189;DHT22;9219;50.396;8.546;2023-04-24T17:42:46;11.20;99.90
18189;DHT22;9219;50.396;8.546;2023-04-24T17:45:14;11.10;99.90
18189;DHT22;9219;50.396;8.546;2023-04-24T17:47:41;11.00;99.90
18189;DHT22;9219;50.396;8.546;2023-04-24T17:50:09;11.10;99.90
18189;DHT22;9219;50.396;8.546;2023-04-24T17:52:36;11.10;99.90
18189;DHT22;9219;50.396;8.546;2023-04-24T17:55:05;11.30;99.90
18189;DHT22;9219;50.396;8.546;2023-04-24T17:57:32;11.40;99.90
18189;DHT22;9219;50.396;8.546;2023-04-24T18:05:04;11.30;99.90
18189;DHT22;9219;50.396;8.546;2023-04-24T18:07:32;10.50;99.90
18189;DHT22;9219;50.396;8.546;2023-04-24T18:09:59;10.60;99.90
18189;DHT22;9219;50.396;8.546;2023-04-24T18:12:27;10.70;99.90
18189;DHT22;9219;50.396;8.546;2023-04-24T18:14:55;11.00;99.90
18189;DHT22;9219;50.396;8.546;2023-04-24T18:17:40;11.00;99.90
18189;DHT22;9219;50.396;8.546;2023-04-24T18:20:09;11.10;99.90
18189;DHT22;9219;50.396;8.546;2023-04-24T18:22:37;10.90;99.90
18189;DHT22;9219;50.396;8.546;2023-04-24T18:30:38;10.60;99.90
18189;DHT22;9219;50.396;8.546;2023-04-24T18:33:07;10.50;99.90
18189;DHT22;9219;50.396;8.546;2023-04-24T18:35:35;10.60;99.90
18189;DHT22;9219;50.396;8.546;2023-04-24T18:38:02;10.80;99.90
18189;DHT22;9219;50.396;8.546;2023-04-24T18:40:30;10.80;99.90
18189;DHT22;9219;50.396;8.546;2023-04-24T18:42:57;10.60;99.90
18189;DHT22;9219;50.396;8.546;2023-04-24T18:45:25;10.50;99.90
18189;DHT22;9219;50.396;8.546;2023-04-24T18:47:53;10.10;99.90
18189;DHT22;9219;50.396;8.546;2023-04-24T18:55:25;10.10;99.90
18189;DHT22;9219;50.396;8.546;2023-04-24T18:57:55;10.40;99.90
18189;DHT22;9219;50.396;8.546;2023-04-24T19:00:26;10.60;99.90
18189;DHT22;9219;50.396;8.546;2023-04-24T19:02:55;10.40;99.90
18189;DHT22;9219;50.396;8.546;2023-04-24T19:05:23;10.30;99.90
18189;DHT22;9219;50.396;8.546;2023-04-24T19:07:54;10.10;99.90
18189;DHT22;9219;50.396;8.546;2023-04-24T19:10:25;10.10;99.90
18189;DHT22;9219;50.396;8.546;2023-04-24T19:17:57;10.20;99.90
18189;DHT22;9219;50.396;8.546;2023-04-24T19:20:25;10.20;99.90
18189;DHT22;9219;50.396;8.546;2023-04-24T19:22:53;10.20;99.90
18189;DHT22;9219;50.396;8.546;2023-04-24T19:25:20;10.20;99.90
18189;DHT22;9219;50.396;8.546;2023-04-24T19:27:48;10.30;99.90
18189;DHT22;9219;50.396;8.546;2023-04-24T19:30:15;10.60;99.90
18189;DHT22;9219;50.396;8.546;2023-04-24T19:32:43;10.60;99.90
18189;DHT22;9219;50.396;8.546;2023-04-24T19:35:11;10.60;99.90
18189;DHT22;9219;50.396;8.546;2023-04-24T19:42:43;10.40;99.90
18189;DHT22;9219;50.396;8.546;2023-04-24T19:45:12;9.90;99.90